Sao Pedro do Piaui, Brazil
Current Conditions -  °F | °C
As of 2:00 AM on Tuesday 27 Jan 2015 (Local Time) from SBTE Reporting Station
Broken Clouds Broken Clouds  
Wind Chill: 77°   Ceiling: 3000
Heat Index: 78°   Visibility: 6mi
Dew Point: 72°   Wind: 6mph
Humidity: 83%   Direction: 350°N
Pressure: 29.83"   Gusts: NA
Location:  5.93°S, 42.72°W
Report Text: SBTE 270500Z 35005KT 9999 BKN030 25/22 Q1010
Loading
Personal Weather Stations






























Interactive Weather Map New forecast layout! Learn more

10-Day Weather Forecast

Advertisements
Track Severe Weather on mobile